sensor_id;sensor_type;location;lat;lon;timestamp;temperature;humidity
52769;DHT22;40471;44.534;18.644;2023-07-13T00:01:12;25.30;99.90
52769;DHT22;40471;44.534;18.644;2023-07-13T00:03:37;25.20;99.90
52769;DHT22;40471;44.534;18.644;2023-07-13T00:06:06;25.20;99.90
52769;DHT22;40471;44.534;18.644;2023-07-13T00:08:32;25.20;99.90
52769;DHT22;40471;44.534;18.644;2023-07-13T00:10:58;25.20;99.90
52769;DHT22;40471;44.534;18.644;2023-07-13T00:13:24;25.20;99.90
52769;DHT22;40471;44.534;18.644;2023-07-13T00:15:49;25.20;99.90
52769;DHT22;40471;44.534;18.644;2023-07-13T00:18:15;25.10;99.90
52769;DHT22;40471;44.534;18.644;2023-07-13T00:20:40;25.10;99.90
52769;DHT22;40471;44.534;18.644;2023-07-13T00:23:07;25.10;99.90
52769;DHT22;40471;44.534;18.644;2023-07-13T00:25:32;25.10;99.90
52769;DHT22;40471;44.534;18.644;2023-07-13T00:27:58;25.10;99.90
52769;DHT22;40471;44.534;18.644;2023-07-13T00:30:23;25.10;99.90
52769;DHT22;40471;44.534;18.644;2023-07-13T00:32:49;25.00;99.90
52769;DHT22;40471;44.534;18.644;2023-07-13T00:35:15;24.90;99.90
52769;DHT22;40471;44.534;18.644;2023-07-13T00:37:41;24.90;99.90
52769;DHT22;40471;44.534;18.644;2023-07-13T00:40:07;24.90;99.90
52769;DHT22;40471;44.534;18.644;2023-07-13T00:42:33;24.90;99.90
52769;DHT22;40471;44.534;18.644;2023-07-13T00:47:27;24.80;99.90
52769;DHT22;40471;44.534;18.644;2023-07-13T00:49:53;24.80;99.90
52769;DHT22;40471;44.534;18.644;2023-07-13T00:52:18;24.80;99.90
52769;DHT22;40471;44.534;18.644;2023-07-13T00:54:45;24.80;99.90
52769;DHT22;40471;44.534;18.644;2023-07-13T00:57:14;24.80;99.90
52769;DHT22;40471;44.534;18.644;2023-07-13T00:59:41;24.80;99.90
52769;DHT22;40471;44.534;18.644;2023-07-13T01:02:07;24.70;99.90
52769;DHT22;40471;44.534;18.644;2023-07-13T01:04:33;24.70;99.90
52769;DHT22;40471;44.534;18.644;2023-07-13T01:06:59;24.70;99.90
52769;DHT22;40471;44.534;18.644;2023-07-13T01:09:25;24.70;99.90
52769;DHT22;40471;44.534;18.644;2023-07-13T01:11:51;24.70;99.90
52769;DHT22;40471;44.534;18.644;2023-07-13T01:14:17;24.70;99.90
52769;DHT22;40471;44.534;18.644;2023-07-13T01:16:43;24.70;99.90
52769;DHT22;40471;44.534;18.644;2023-07-13T01:19:12;24.70;99.90
52769;DHT22;40471;44.534;18.644;2023-07-13T01:21:40;24.70;99.90
52769;DHT22;40471;44.534;18.644;2023-07-13T01:24:08;24.70;99.90
52769;DHT22;40471;44.534;18.644;2023-07-13T01:26:34;24.70;99.90
52769;DHT22;40471;44.534;18.644;2023-07-13T01:28:59;24.70;99.90
52769;DHT22;40471;44.534;18.644;2023-07-13T01:31:25;24.70;99.90
52769;DHT22;40471;44.534;18.644;2023-07-13T01:33:51;24.60;99.90
52769;DHT22;40471;44.534;18.644;2023-07-13T01:36:16;24.60;99.90
52769;DHT22;40471;44.534;18.644;2023-07-13T01:38:42;24.60;99.90
52769;DHT22;40471;44.534;18.644;2023-07-13T01:41:08;24.60;99.90
52769;DHT22;40471;44.534;18.644;2023-07-13T01:43:33;24.50;99.90
52769;DHT22;40471;44.534;18.644;2023-07-13T01:45:59;24.40;99.90
52769;DHT22;40471;44.534;18.644;2023-07-13T01:48:24;24.40;99.90
52769;DHT22;40471;44.534;18.644;2023-07-13T01:50:50;24.40;99.90
52769;DHT22;40471;44.534;18.644;2023-07-13T01:53:15;24.40;99.90
52769;DHT22;40471;44.534;18.644;2023-07-13T01:55:41;24.30;99.90
52769;DHT22;40471;44.534;18.644;2023-07-13T01:58:07;24.30;99.90
52769;DHT22;40471;44.534;18.644;2023-07-13T02:00:33;24.30;99.90
52769;DHT22;40471;44.534;18.644;2023-07-13T02:02:59;24.20;99.90
52769;DHT22;40471;44.534;18.644;2023-07-13T02:05:24;24.20;99.90
52769;DHT22;40471;44.534;18.644;2023-07-13T02:07:50;24.00;99.90
52769;DHT22;40471;44.534;18.644;2023-07-13T02:10:16;23.80;99.90
52769;DHT22;40471;44.534;18.644;2023-07-13T02:12:42;23.70;99.90
52769;DHT22;40471;44.534;18.644;2023-07-13T02:15:08;23.80;99.90
52769;DHT22;40471;44.534;18.644;2023-07-13T02:17:35;23.70;99.90
52769;DHT22;40471;44.534;18.644;2023-07-13T02:20:01;23.80;99.90
52769;DHT22;40471;44.534;18.644;2023-07-13T02:22:27;23.70;99.90
52769;DHT22;40471;44.534;18.644;2023-07-13T02:24:52;23.80;99.90
52769;DHT22;40471;44.534;18.644;2023-07-13T02:27:18;23.70;99.90
52769;DHT22;40471;44.534;18.644;2023-07-13T02:29:43;23.70;99.90
52769;DHT22;40471;44.534;18.644;2023-07-13T02:32:09;23.70;99.90
52769;DHT22;40471;44.534;18.644;2023-07-13T02:34:35;23.60;99.90
52769;DHT22;40471;44.534;18.644;2023-07-13T02:37:00;23.60;99.90
52769;DHT22;40471;44.534;18.644;2023-07-13T02:39:26;23.50;99.90
52769;DHT22;40471;44.534;18.644;2023-07-13T02:41:52;23.40;99.90
52769;DHT22;40471;44.534;18.644;2023-07-13T02:44:17;23.40;99.90
52769;DHT22;40471;44.534;18.644;2023-07-13T02:46:43;23.40;99.90
52769;DHT22;40471;44.534;18.644;2023-07-13T02:49:08;23.50;99.90
52769;DHT22;40471;44.534;18.644;2023-07-13T02:51:34;23.40;99.90
52769;DHT22;40471;44.534;18.644;2023-07-13T02:54:00;23.50;99.90
52769;DHT22;40471;44.534;18.644;2023-07-13T02:56:27;23.50;99.90
52769;DHT22;40471;44.534;18.644;2023-07-13T02:58:53;23.40;99.90
52769;DHT22;40471;44.534;18.644;2023-07-13T03:01:19;23.70;99.90
52769;DHT22;40471;44.534;18.644;2023-07-13T03:03:46;23.30;99.90
52769;DHT22;40471;44.534;18.644;2023-07-13T03:06:11;23.30;99.90
52769;DHT22;40471;44.534;18.644;2023-07-13T03:08:37;23.30;99.90
52769;DHT22;40471;44.534;18.644;2023-07-13T03:11:06;23.30;99.90
52769;DHT22;40471;44.534;18.644;2023-07-13T03:13:32;23.30;99.90
52769;DHT22;40471;44.534;18.644;2023-07-13T03:15:58;23.30;99.90
52769;DHT22;40471;44.534;18.644;2023-07-13T03:18:23;23.20;99.90
52769;DHT22;40471;44.534;18.644;2023-07-13T03:20:52;23.20;99.90
52769;DHT22;40471;44.534;18.644;2023-07-13T03:23:18;23.20;99.90
52769;DHT22;40471;44.534;18.644;2023-07-13T03:25:44;23.20;99.90
52769;DHT22;40471;44.534;18.644;2023-07-13T03:28:10;23.10;99.90
52769;DHT22;40471;44.534;18.644;2023-07-13T03:30:36;23.10;99.90
52769;DHT22;40471;44.534;18.644;2023-07-13T03:33:02;23.10;99.90
52769;DHT22;40471;44.534;18.644;2023-07-13T03:35:27;23.20;99.90
52769;DHT22;40471;44.534;18.644;2023-07-13T03:37:53;23.20;99.90
52769;DHT22;40471;44.534;18.644;2023-07-13T03:40:18;23.30;99.90
52769;DHT22;40471;44.534;18.644;2023-07-13T03:42:44;23.40;99.90
52769;DHT22;40471;44.534;18.644;2023-07-13T03:45:10;23.30;99.90
52769;DHT22;40471;44.534;18.644;2023-07-13T03:47:35;23.30;99.90
52769;DHT22;40471;44.534;18.644;2023-07-13T03:50:01;23.30;99.90
52769;DHT22;40471;44.534;18.644;2023-07-13T03:52:26;23.30;99.90
52769;DHT22;40471;44.534;18.644;2023-07-13T03:54:52;23.30;99.90
52769;DHT22;40471;44.534;18.644;2023-07-13T03:57:18;23.20;99.90
52769;DHT22;40471;44.534;18.644;2023-07-13T03:59:44;23.30;99.90
52769;DHT22;40471;44.534;18.644;2023-07-13T04:02:09;23.30;99.90
52769;DHT22;40471;44.534;18.644;2023-07-13T04:04:35;23.40;99.90
52769;DHT22;40471;44.534;18.644;2023-07-13T04:07:01;23.40;99.90
52769;DHT22;40471;44.534;18.644;2023-07-13T04:09:26;23.50;99.90
52769;DHT22;40471;44.534;18.644;2023-07-13T04:11:52;23.50;99.90
52769;DHT22;40471;44.534;18.644;2023-07-13T04:14:17;23.60;99.90
52769;DHT22;40471;44.534;18.644;2023-07-13T04:16:43;23.70;99.90
52769;DHT22;40471;44.534;18.644;2023-07-13T04:19:09;23.70;99.90
52769;DHT22;40471;44.534;18.644;2023-07-13T04:21:35;23.70;99.90
52769;DHT22;40471;44.534;18.644;2023-07-13T04:24:01;23.80;99.90
52769;DHT22;40471;44.534;18.644;2023-07-13T04:26:28;23.80;99.90
52769;DHT22;40471;44.534;18.644;2023-07-13T04:28:54;24.00;99.90
52769;DHT22;40471;44.534;18.644;2023-07-13T04:31:20;24.00;99.90
52769;DHT22;40471;44.534;18.644;2023-07-13T04:33:46;24.10;99.90
52769;DHT22;40471;44.534;18.644;2023-07-13T04:36:12;24.30;99.90
52769;DHT22;40471;44.534;18.644;2023-07-13T04:38:37;24.50;99.90
52769;DHT22;40471;44.534;18.644;2023-07-13T04:41:04;24.50;99.90
52769;DHT22;40471;44.534;18.644;2023-07-13T04:43:30;24.60;99.90
52769;DHT22;40471;44.534;18.644;2023-07-13T04:45:56;24.70;99.90
52769;DHT22;40471;44.534;18.644;2023-07-13T04:48:22;24.70;99.90
52769;DHT22;40471;44.534;18.644;2023-07-13T04:50:47;24.80;99.90
52769;DHT22;40471;44.534;18.644;2023-07-13T04:53:13;24.90;99.90
52769;DHT22;40471;44.534;18.644;2023-07-13T04:55:39;24.90;99.90
52769;DHT22;40471;44.534;18.644;2023-07-13T04:58:06;25.20;99.90
52769;DHT22;40471;44.534;18.644;2023-07-13T05:00:31;25.30;99.90
52769;DHT22;40471;44.534;18.644;2023-07-13T05:02:57;25.60;99.90
52769;DHT22;40471;44.534;18.644;2023-07-13T05:05:24;25.90;99.90
52769;DHT22;40471;44.534;18.644;2023-07-13T05:07:51;26.10;99.90
52769;DHT22;40471;44.534;18.644;2023-07-13T05:10:17;26.40;99.90
52769;DHT22;40471;44.534;18.644;2023-07-13T05:12:43;26.70;99.90
52769;DHT22;40471;44.534;18.644;2023-07-13T05:15:08;26.90;99.90
52769;DHT22;40471;44.534;18.644;2023-07-13T05:17:34;27.00;99.90
52769;DHT22;40471;44.534;18.644;2023-07-13T05:20:00;27.20;99.90
52769;DHT22;40471;44.534;18.644;2023-07-13T05:22:25;27.40;99.90
52769;DHT22;40471;44.534;18.644;2023-07-13T05:24:51;27.60;99.90
52769;DHT22;40471;44.534;18.644;2023-07-13T05:27:17;27.80;99.90
52769;DHT22;40471;44.534;18.644;2023-07-13T05:29:42;27.80;99.90
52769;DHT22;40471;44.534;18.644;2023-07-13T05:32:08;27.90;99.90
52769;DHT22;40471;44.534;18.644;2023-07-13T05:34:33;28.10;99.90
52769;DHT22;40471;44.534;18.644;2023-07-13T05:36:59;28.30;99.90
52769;DHT22;40471;44.534;18.644;2023-07-13T05:39:24;28.40;99.90
52769;DHT22;40471;44.534;18.644;2023-07-13T05:41:51;28.90;99.90
52769;DHT22;40471;44.534;18.644;2023-07-13T05:44:17;30.70;99.90
52769;DHT22;40471;44.534;18.644;2023-07-13T05:46:42;32.40;96.80
52769;DHT22;40471;44.534;18.644;2023-07-13T05:49:08;33.40;93.50
52769;DHT22;40471;44.534;18.644;2023-07-13T05:51:33;34.40;89.50
52769;DHT22;40471;44.534;18.644;2023-07-13T05:53:59;35.10;82.90
52769;DHT22;40471;44.534;18.644;2023-07-13T05:56:25;36.50;79.50
52769;DHT22;40471;44.534;18.644;2023-07-13T05:58:51;36.50;75.00
52769;DHT22;40471;44.534;18.644;2023-07-13T06:01:17;37.60;75.80
52769;DHT22;40471;44.534;18.644;2023-07-13T06:03:43;38.60;75.00
52769;DHT22;40471;44.534;18.644;2023-07-13T06:06:09;38.20;69.10
52769;DHT22;40471;44.534;18.644;2023-07-13T06:08:35;39.30;67.90
52769;DHT22;40471;44.534;18.644;2023-07-13T06:13:32;40.50;64.00
52769;DHT22;40471;44.534;18.644;2023-07-13T06:15:59;38.90;64.40
52769;DHT22;40471;44.534;18.644;2023-07-13T06:18:24;37.20;67.40
52769;DHT22;40471;44.534;18.644;2023-07-13T06:20:50;36.00;71.00
52769;DHT22;40471;44.534;18.644;2023-07-13T06:23:15;35.70;72.60
52769;DHT22;40471;44.534;18.644;2023-07-13T06:25:41;36.80;71.10
52769;DHT22;40471;44.534;18.644;2023-07-13T06:28:08;38.30;69.50
52769;DHT22;40471;44.534;18.644;2023-07-13T06:30:33;39.30;68.00
52769;DHT22;40471;44.534;18.644;2023-07-13T06:32:59;39.70;66.50
52769;DHT22;40471;44.534;18.644;2023-07-13T06:35:25;40.50;65.40
52769;DHT22;40471;44.534;18.644;2023-07-13T06:37:50;41.40;65.30
52769;DHT22;40471;44.534;18.644;2023-07-13T06:40:16;42.20;63.90
52769;DHT22;40471;44.534;18.644;2023-07-13T06:42:42;42.50;61.60
52769;DHT22;40471;44.534;18.644;2023-07-13T06:45:08;42.90;61.80
52769;DHT22;40471;44.534;18.644;2023-07-13T06:47:33;43.30;61.10
52769;DHT22;40471;44.534;18.644;2023-07-13T06:49:59;43.60;59.10
52769;DHT22;40471;44.534;18.644;2023-07-13T06:52:25;44.10;57.90
52769;DHT22;40471;44.534;18.644;2023-07-13T06:54:50;44.70;57.80
52769;DHT22;40471;44.534;18.644;2023-07-13T06:57:16;45.10;56.80
52769;DHT22;40471;44.534;18.644;2023-07-13T06:59:41;45.70;56.00
52769;DHT22;40471;44.534;18.644;2023-07-13T07:02:08;45.80;56.40
52769;DHT22;40471;44.534;18.644;2023-07-13T07:04:35;46.10;55.90
52769;DHT22;40471;44.534;18.644;2023-07-13T07:07:00;46.70;56.00
52769;DHT22;40471;44.534;18.644;2023-07-13T07:09:26;47.10;54.00
52769;DHT22;40471;44.534;18.644;2023-07-13T07:11:52;47.30;54.40
52769;DHT22;40471;44.534;18.644;2023-07-13T07:14:17;47.40;54.00
52769;DHT22;40471;44.534;18.644;2023-07-13T07:16:43;47.40;53.10
52769;DHT22;40471;44.534;18.644;2023-07-13T07:19:08;47.40;52.90
52769;DHT22;40471;44.534;18.644;2023-07-13T07:21:34;47.30;51.80
52769;DHT22;40471;44.534;18.644;2023-07-13T07:23:59;47.60;53.00
52769;DHT22;40471;44.534;18.644;2023-07-13T07:26:25;47.90;53.50
52769;DHT22;40471;44.534;18.644;2023-07-13T07:28:51;48.20;53.10
52769;DHT22;40471;44.534;18.644;2023-07-13T07:31:16;48.70;54.90
52769;DHT22;40471;44.534;18.644;2023-07-13T07:33:42;48.70;52.70
52769;DHT22;40471;44.534;18.644;2023-07-13T07:36:08;49.00;52.50
52769;DHT22;40471;44.534;18.644;2023-07-13T07:38:34;49.10;51.40
52769;DHT22;40471;44.534;18.644;2023-07-13T07:41:02;49.00;52.20
52769;DHT22;40471;44.534;18.644;2023-07-13T07:43:27;48.60;54.50
52769;DHT22;40471;44.534;18.644;2023-07-13T07:45:53;48.30;52.40
52769;DHT22;40471;44.534;18.644;2023-07-13T07:48:19;47.80;53.50
52769;DHT22;40471;44.534;18.644;2023-07-13T07:50:44;47.20;54.00
52769;DHT22;40471;44.534;18.644;2023-07-13T07:53:10;47.60;53.70
52769;DHT22;40471;44.534;18.644;2023-07-13T07:55:36;47.70;53.20
52769;DHT22;40471;44.534;18.644;2023-07-13T07:58:02;47.60;52.70
52769;DHT22;40471;44.534;18.644;2023-07-13T08:00:27;47.40;53.90
52769;DHT22;40471;44.534;18.644;2023-07-13T08:02:56;47.60;53.30
52769;DHT22;40471;44.534;18.644;2023-07-13T08:05:22;47.40;53.70
52769;DHT22;40471;44.534;18.644;2023-07-13T08:07:47;47.50;52.40
52769;DHT22;40471;44.534;18.644;2023-07-13T08:10:13;47.80;51.10
52769;DHT22;40471;44.534;18.644;2023-07-13T08:12:38;47.90;50.40
52769;DHT22;40471;44.534;18.644;2023-07-13T08:15:05;47.40;50.90
52769;DHT22;40471;44.534;18.644;2023-07-13T08:17:31;47.40;51.40
52769;DHT22;40471;44.534;18.644;2023-07-13T08:19:56;47.20;50.70
52769;DHT22;40471;44.534;18.644;2023-07-13T08:22:22;47.20;52.10
52769;DHT22;40471;44.534;18.644;2023-07-13T08:24:48;47.30;52.50
52769;DHT22;40471;44.534;18.644;2023-07-13T08:27:20;47.60;51.30
52769;DHT22;40471;44.534;18.644;2023-07-13T08:29:47;47.90;50.90
52769;DHT22;40471;44.534;18.644;2023-07-13T08:32:12;48.10;51.80
52769;DHT22;40471;44.534;18.644;2023-07-13T08:34:39;48.10;52.10
52769;DHT22;40471;44.534;18.644;2023-07-13T08:37:05;48.00;51.50
52769;DHT22;40471;44.534;18.644;2023-07-13T08:39:31;47.90;51.60
52769;DHT22;40471;44.534;18.644;2023-07-13T08:41:58;48.00;51.80
52769;DHT22;40471;44.534;18.644;2023-07-13T08:47:11;47.60;52.20
52769;DHT22;40471;44.534;18.644;2023-07-13T08:49:39;47.20;51.30
52769;DHT22;40471;44.534;18.644;2023-07-13T08:52:10;47.10;53.10
52769;DHT22;40471;44.534;18.644;2023-07-13T08:54:39;47.30;52.50
52769;DHT22;40471;44.534;18.644;2023-07-13T08:57:15;47.30;51.20
52769;DHT22;40471;44.534;18.644;2023-07-13T08:59:42;47.30;51.90
52769;DHT22;40471;44.534;18.644;2023-07-13T09:02:14;47.60;52.80
52769;DHT22;40471;44.534;18.644;2023-07-13T09:14:48;47.60;52.60
52769;DHT22;40471;44.534;18.644;2023-07-13T09:17:35;47.70;50.90
52769;DHT22;40471;44.534;18.644;2023-07-13T09:22:51;47.10;51.30
52769;DHT22;40471;44.534;18.644;2023-07-13T09:27:46;47.20;51.00
52769;DHT22;40471;44.534;18.644;2023-07-13T09:32:39;47.40;52.20
52769;DHT22;40471;44.534;18.644;2023-07-13T09:35:10;47.30;52.50
52769;DHT22;40471;44.534;18.644;2023-07-13T09:37:36;47.30;51.40
52769;DHT22;40471;44.534;18.644;2023-07-13T09:40:02;47.00;52.00
52769;DHT22;40471;44.534;18.644;2023-07-13T09:42:30;46.90;52.50
52769;DHT22;40471;44.534;18.644;2023-07-13T09:44:59;46.80;52.80
52769;DHT22;40471;44.534;18.644;2023-07-13T09:47:26;47.10;51.80
52769;DHT22;40471;44.534;18.644;2023-07-13T09:49:56;47.10;51.80
52769;DHT22;40471;44.534;18.644;2023-07-13T09:52:23;46.80;53.10
52769;DHT22;40471;44.534;18.644;2023-07-13T09:54:50;46.80;52.80
52769;DHT22;40471;44.534;18.644;2023-07-13T09:57:17;46.80;52.50
52769;DHT22;40471;44.534;18.644;2023-07-13T09:59:44;46.80;54.10
52769;DHT22;40471;44.534;18.644;2023-07-13T10:05:06;46.90;53.30
52769;DHT22;40471;44.534;18.644;2023-07-13T10:07:35;46.70;49.00
52769;DHT22;40471;44.534;18.644;2023-07-13T10:10:03;46.50;49.00
52769;DHT22;40471;44.534;18.644;2023-07-13T10:12:29;46.40;50.30
52769;DHT22;40471;44.534;18.644;2023-07-13T10:14:59;46.70;50.00
52769;DHT22;40471;44.534;18.644;2023-07-13T10:17:34;46.50;49.20
52769;DHT22;40471;44.534;18.644;2023-07-13T10:20:01;46.50;48.80
52769;DHT22;40471;44.534;18.644;2023-07-13T10:22:42;46.50;51.00
52769;DHT22;40471;44.534;18.644;2023-07-13T10:25:13;46.40;50.90
52769;DHT22;40471;44.534;18.644;2023-07-13T10:27:40;46.40;49.50
52769;DHT22;40471;44.534;18.644;2023-07-13T10:30:17;46.50;50.40
52769;DHT22;40471;44.534;18.644;2023-07-13T10:32:45;46.50;50.60
52769;DHT22;40471;44.534;18.644;2023-07-13T10:35:12;46.80;51.10
52769;DHT22;40471;44.534;18.644;2023-07-13T10:37:54;46.80;51.30
52769;DHT22;40471;44.534;18.644;2023-07-13T10:40:27;46.90;51.00
52769;DHT22;40471;44.534;18.644;2023-07-13T10:42:55;46.80;51.40
52769;DHT22;40471;44.534;18.644;2023-07-13T10:45:22;46.80;50.40
52769;DHT22;40471;44.534;18.644;2023-07-13T10:57:16;47.20;50.50
52769;DHT22;40471;44.534;18.644;2023-07-13T10:59:43;47.20;50.20
52769;DHT22;40471;44.534;18.644;2023-07-13T11:02:12;46.80;50.20
52769;DHT22;40471;44.534;18.644;2023-07-13T11:04:40;46.70;51.30
52769;DHT22;40471;44.534;18.644;2023-07-13T11:07:16;46.70;51.40
52769;DHT22;40471;44.534;18.644;2023-07-13T11:09:43;46.50;52.30
52769;DHT22;40471;44.534;18.644;2023-07-13T11:14:43;46.10;52.20
52769;DHT22;40471;44.534;18.644;2023-07-13T11:18:12;45.90;52.30
52769;DHT22;40471;44.534;18.644;2023-07-13T11:22:53;46.00;53.70
52769;DHT22;40471;44.534;18.644;2023-07-13T11:25:32;46.20;53.40
52769;DHT22;40471;44.534;18.644;2023-07-13T11:30:38;45.90;54.20
52769;DHT22;40471;44.534;18.644;2023-07-13T11:36:05;45.80;52.70
52769;DHT22;40471;44.534;18.644;2023-07-13T11:38:41;45.50;52.10
52769;DHT22;40471;44.534;18.644;2023-07-13T11:41:14;45.40;53.50
52769;DHT22;40471;44.534;18.644;2023-07-13T11:43:40;45.30;53.70
52769;DHT22;40471;44.534;18.644;2023-07-13T11:46:23;44.70;53.50
52769;DHT22;40471;44.534;18.644;2023-07-13T11:48:49;44.50;54.00
52769;DHT22;40471;44.534;18.644;2023-07-13T11:51:17;44.30;54.40
52769;DHT22;40471;44.534;18.644;2023-07-13T11:53:45;44.00;54.20
52769;DHT22;40471;44.534;18.644;2023-07-13T11:56:11;43.90;56.20
52769;DHT22;40471;44.534;18.644;2023-07-13T11:58:37;43.60;56.60
52769;DHT22;40471;44.534;18.644;2023-07-13T12:01:03;43.60;58.10
52769;DHT22;40471;44.534;18.644;2023-07-13T12:03:32;43.50;56.20
52769;DHT22;40471;44.534;18.644;2023-07-13T12:06:06;43.10;56.70
52769;DHT22;40471;44.534;18.644;2023-07-13T12:08:44;42.70;57.30
52769;DHT22;40471;44.534;18.644;2023-07-13T12:11:14;42.80;58.10
52769;DHT22;40471;44.534;18.644;2023-07-13T12:13:41;42.70;58.00
52769;DHT22;40471;44.534;18.644;2023-07-13T12:16:10;42.30;58.20
52769;DHT22;40471;44.534;18.644;2023-07-13T12:18:36;41.90;58.90
52769;DHT22;40471;44.534;18.644;2023-07-13T12:21:02;41.60;59.20
52769;DHT22;40471;44.534;18.644;2023-07-13T12:23:31;41.60;59.40
52769;DHT22;40471;44.534;18.644;2023-07-13T12:25:57;41.30;59.70
52769;DHT22;40471;44.534;18.644;2023-07-13T12:28:30;41.30;60.70
52769;DHT22;40471;44.534;18.644;2023-07-13T12:31:00;41.30;59.90
52769;DHT22;40471;44.534;18.644;2023-07-13T12:33:29;41.30;60.10
52769;DHT22;40471;44.534;18.644;2023-07-13T12:35:56;41.30;59.70
52769;DHT22;40471;44.534;18.644;2023-07-13T12:38:24;41.40;59.50
52769;DHT22;40471;44.534;18.644;2023-07-13T12:40:50;41.40;60.20
52769;DHT22;40471;44.534;18.644;2023-07-13T12:43:16;41.40;60.10
52769;DHT22;40471;44.534;18.644;2023-07-13T12:45:55;41.80;60.30
52769;DHT22;40471;44.534;18.644;2023-07-13T12:48:21;41.80;61.00
52769;DHT22;40471;44.534;18.644;2023-07-13T12:50:47;41.50;61.10
52769;DHT22;40471;44.534;18.644;2023-07-13T12:53:15;41.50;62.80
52769;DHT22;40471;44.534;18.644;2023-07-13T12:55:46;41.50;61.40
52769;DHT22;40471;44.534;18.644;2023-07-13T12:58:26;41.60;61.80
52769;DHT22;40471;44.534;18.644;2023-07-13T13:00:54;41.90;61.20
52769;DHT22;40471;44.534;18.644;2023-07-13T13:05:45;41.50;61.20
52769;DHT22;40471;44.534;18.644;2023-07-13T13:08:11;41.20;61.50
52769;DHT22;40471;44.534;18.644;2023-07-13T13:10:37;41.00;61.40
52769;DHT22;40471;44.534;18.644;2023-07-13T13:13:03;41.00;62.20
52769;DHT22;40471;44.534;18.644;2023-07-13T13:15:28;41.10;61.20
52769;DHT22;40471;44.534;18.644;2023-07-13T13:17:55;41.30;62.70
52769;DHT22;40471;44.534;18.644;2023-07-13T13:20:21;41.50;62.90
52769;DHT22;40471;44.534;18.644;2023-07-13T13:22:47;41.40;62.50
52769;DHT22;40471;44.534;18.644;2023-07-13T13:25:13;41.30;62.70
52769;DHT22;40471;44.534;18.644;2023-07-13T13:27:42;41.10;62.90
52769;DHT22;40471;44.534;18.644;2023-07-13T13:30:12;40.60;63.00
52769;DHT22;40471;44.534;18.644;2023-07-13T13:32:41;40.40;62.60
52769;DHT22;40471;44.534;18.644;2023-07-13T13:35:14;40.20;62.60
52769;DHT22;40471;44.534;18.644;2023-07-13T13:37:40;40.00;63.80
52769;DHT22;40471;44.534;18.644;2023-07-13T13:40:39;39.90;63.30
52769;DHT22;40471;44.534;18.644;2023-07-13T13:42:59;39.70;63.20
52769;DHT22;40471;44.534;18.644;2023-07-13T13:45:24;39.50;64.30
52769;DHT22;40471;44.534;18.644;2023-07-13T13:47:50;39.50;63.10
52769;DHT22;40471;44.534;18.644;2023-07-13T13:50:17;39.60;62.90
52769;DHT22;40471;44.534;18.644;2023-07-13T13:52:44;39.50;63.80
52769;DHT22;40471;44.534;18.644;2023-07-13T13:55:14;39.30;63.40
52769;DHT22;40471;44.534;18.644;2023-07-13T13:57:40;39.20;63.60
52769;DHT22;40471;44.534;18.644;2023-07-13T14:00:07;39.00;63.10
52769;DHT22;40471;44.534;18.644;2023-07-13T14:02:34;38.80;64.70
52769;DHT22;40471;44.534;18.644;2023-07-13T14:05:01;38.50;64.80
52769;DHT22;40471;44.534;18.644;2023-07-13T14:07:26;38.40;65.80
52769;DHT22;40471;44.534;18.644;2023-07-13T14:09:57;38.40;64.30
52769;DHT22;40471;44.534;18.644;2023-07-13T14:12:22;38.60;64.20
52769;DHT22;40471;44.534;18.644;2023-07-13T14:14:51;38.50;63.50
52769;DHT22;40471;44.534;18.644;2023-07-13T14:17:20;38.30;64.20
52769;DHT22;40471;44.534;18.644;2023-07-13T14:19:48;38.30;64.30
52769;DHT22;40471;44.534;18.644;2023-07-13T14:22:16;38.20;64.60
52769;DHT22;40471;44.534;18.644;2023-07-13T14:24:42;38.10;65.10
52769;DHT22;40471;44.534;18.644;2023-07-13T14:27:08;37.90;65.80
52769;DHT22;40471;44.534;18.644;2023-07-13T14:29:34;37.50;65.70
52769;DHT22;40471;44.534;18.644;2023-07-13T14:32:00;37.30;66.50
52769;DHT22;40471;44.534;18.644;2023-07-13T14:34:25;37.20;67.60
52769;DHT22;40471;44.534;18.644;2023-07-13T14:36:51;37.20;68.10
52769;DHT22;40471;44.534;18.644;2023-07-13T14:39:21;37.00;67.40
52769;DHT22;40471;44.534;18.644;2023-07-13T14:41:49;36.90;68.40
52769;DHT22;40471;44.534;18.644;2023-07-13T14:44:16;36.70;68.00
52769;DHT22;40471;44.534;18.644;2023-07-13T14:46:42;36.60;68.60
52769;DHT22;40471;44.534;18.644;2023-07-13T14:51:37;36.20;69.40
52769;DHT22;40471;44.534;18.644;2023-07-13T14:54:03;36.20;69.60
52769;DHT22;40471;44.534;18.644;2023-07-13T14:56:29;36.30;69.50
52769;DHT22;40471;44.534;18.644;2023-07-13T14:58:55;36.40;69.70
52769;DHT22;40471;44.534;18.644;2023-07-13T15:01:21;36.50;69.60
52769;DHT22;40471;44.534;18.644;2023-07-13T15:03:48;36.70;71.50
52769;DHT22;40471;44.534;18.644;2023-07-13T15:06:14;36.90;70.20
52769;DHT22;40471;44.534;18.644;2023-07-13T15:08:40;37.00;70.50
52769;DHT22;40471;44.534;18.644;2023-07-13T15:11:09;37.00;71.90
52769;DHT22;40471;44.534;18.644;2023-07-13T15:13:38;36.90;72.70
52769;DHT22;40471;44.534;18.644;2023-07-13T15:16:04;37.00;73.10
52769;DHT22;40471;44.534;18.644;2023-07-13T15:18:30;37.00;73.10
52769;DHT22;40471;44.534;18.644;2023-07-13T15:20:56;37.00;72.70
52769;DHT22;40471;44.534;18.644;2023-07-13T15:23:23;37.00;73.00
52769;DHT22;40471;44.534;18.644;2023-07-13T15:25:49;36.90;73.70
52769;DHT22;40471;44.534;18.644;2023-07-13T15:28:15;36.90;74.50
52769;DHT22;40471;44.534;18.644;2023-07-13T15:30:42;37.00;76.00
52769;DHT22;40471;44.534;18.644;2023-07-13T15:33:12;37.00;74.70
52769;DHT22;40471;44.534;18.644;2023-07-13T15:35:38;36.90;75.80
52769;DHT22;40471;44.534;18.644;2023-07-13T15:38:15;36.90;77.60
52769;DHT22;40471;44.534;18.644;2023-07-13T15:40:41;36.80;77.60
52769;DHT22;40471;44.534;18.644;2023-07-13T15:43:13;36.70;78.30
52769;DHT22;40471;44.534;18.644;2023-07-13T15:45:39;36.60;78.20
52769;DHT22;40471;44.534;18.644;2023-07-13T15:48:11;36.50;78.60
52769;DHT22;40471;44.534;18.644;2023-07-13T15:51:00;36.50;77.40
52769;DHT22;40471;44.534;18.644;2023-07-13T15:53:30;36.30;78.90
52769;DHT22;40471;44.534;18.644;2023-07-13T15:55:56;36.20;80.70
52769;DHT22;40471;44.534;18.644;2023-07-13T15:58:22;36.10;85.60
52769;DHT22;40471;44.534;18.644;2023-07-13T16:00:48;36.10;88.60
52769;DHT22;40471;44.534;18.644;2023-07-13T16:03:17;36.10;86.30
52769;DHT22;40471;44.534;18.644;2023-07-13T16:05:44;35.70;86.90
52769;DHT22;40471;44.534;18.644;2023-07-13T16:08:23;35.50;86.10